createdAt,value
2023-04-03T00:00:11.019Z,1.76
2023-04-03T00:05:17.257Z,1.68
2023-04-03T00:10:19.042Z,1.64
2023-04-03T00:15:22.976Z,1.52
2023-04-03T00:20:27.249Z,1.45
2023-04-03T00:25:28.916Z,1.41
2023-04-03T00:30:31.911Z,1.41
2023-04-03T00:35:39.141Z,1.31
2023-04-03T00:40:47.750Z,1.21
2023-04-03T00:45:56.736Z,1.10
2023-04-03T00:51:01.419Z,1.03
2023-04-03T00:56:10.850Z,0.94
2023-04-03T01:01:17.694Z,0.87
2023-04-03T01:06:33.959Z,0.85
2023-04-03T01:11:41.515Z,0.81
2023-04-03T01:16:56.015Z,0.79
2023-04-03T01:22:08.369Z,0.72
2023-04-03T01:27:11.386Z,0.67
2023-04-03T01:32:20.715Z,0.62
2023-04-03T01:37:22.487Z,0.54
2023-04-03T01:42:24.295Z,0.58
2023-04-03T01:47:26.179Z,0.60
2023-04-03T01:52:32.720Z,0.56
2023-04-03T01:57:34.517Z,0.48
2023-04-03T02:02:36.772Z,0.38
2023-04-03T02:07:40.787Z,0.38
2023-04-03T02:12:44.753Z,0.35
2023-04-03T02:17:48.947Z,0.34
2023-04-03T02:22:53.503Z,0.30
2023-04-03T02:27:55.209Z,0.26
2023-04-03T02:32:59.299Z,0.20
2023-04-03T02:38:02.331Z,0.24
2023-04-03T02:43:04.132Z,0.26
2023-04-03T02:48:06.515Z,0.25
2023-04-03T02:53:13.031Z,0.20
2023-04-03T02:58:16.952Z,0.19
2023-04-03T03:03:24.066Z,0.15
2023-04-03T03:08:25.813Z,0.16
2023-04-03T03:13:29.734Z,0.08
2023-04-03T03:18:34.053Z,0.00
2023-04-03T03:23:36.169Z,-0.04
2023-04-03T03:28:41.387Z,-0.16
2023-04-03T03:33:47.437Z,-0.28
2023-04-03T03:38:51.455Z,-0.35
2023-04-03T03:43:53.310Z,-0.45
2023-04-03T03:49:00.494Z,-0.54
2023-04-03T03:54:02.663Z,-0.64
2023-04-03T03:59:06.904Z,-0.10
2023-04-03T04:04:08.933Z,-0.41
2023-04-03T04:09:13.163Z,-0.58
2023-04-03T04:14:17.896Z,-0.69
2023-04-03T04:19:25.231Z,-0.76
2023-04-03T04:24:30.262Z,-0.82
2023-04-03T04:29:36.777Z,-0.94
2023-04-03T04:34:42.782Z,-1.04
2023-04-03T04:39:48.187Z,-1.11
2023-04-03T04:44:50.370Z,-1.16
2023-04-03T04:49:54.641Z,-1.21
2023-04-03T04:54:56.802Z,-1.27
2023-04-03T05:00:04.045Z,-0.75
2023-04-03T05:05:11.121Z,-0.45
2023-04-03T05:10:15.856Z,-0.37
2023-04-03T05:15:17.969Z,-0.30
2023-04-03T05:20:22.255Z,-0.40
2023-04-03T05:25:27.198Z,-0.51
2023-04-03T05:30:32.049Z,-0.58
2023-04-03T05:35:42.510Z,-0.57
2023-04-03T05:40:48.188Z,-0.52
2023-04-03T05:45:52.572Z,-0.43
2023-04-03T05:50:58.625Z,-0.40
2023-04-03T05:56:01.922Z,-0.26
2023-04-03T06:01:09.988Z,-0.14
2023-04-03T06:06:18.874Z,-0.02
2023-04-03T06:11:25.155Z,0.15
2023-04-03T06:16:27.053Z,0.32
2023-04-03T06:21:28.830Z,0.51
2023-04-03T06:26:32.887Z,0.71
2023-04-03T06:31:39.842Z,0.90
2023-04-03T06:36:41.532Z,1.10
2023-04-03T06:41:47.709Z,1.27
2023-04-03T06:46:49.586Z,1.42
2023-04-03T06:51:51.490Z,1.62
2023-04-03T06:56:53.291Z,1.76
2023-04-03T07:01:55.281Z,1.93
2023-04-03T07:06:59.356Z,2.10
2023-04-03T07:12:03.780Z,2.25
2023-04-03T07:17:10.343Z,2.40
2023-04-03T07:22:14.437Z,2.56
2023-04-03T07:27:16.376Z,2.68
2023-04-03T07:32:18.628Z,2.83
2023-04-03T07:37:20.373Z,2.96
2023-04-03T07:42:24.410Z,3.09
2023-04-03T07:47:28.361Z,3.22
2023-04-03T07:52:34.948Z,3.31
2023-04-03T07:57:38.958Z,3.45
2023-04-03T08:02:43.736Z,3.63
2023-04-03T08:07:48.297Z,3.77
2023-04-03T08:12:52.918Z,3.87
2023-04-03T08:17:57.337Z,4.03
2023-04-03T08:22:59.131Z,4.15
2023-04-03T08:28:00.894Z,4.23
2023-04-03T08:33:04.015Z,4.43
2023-04-03T08:38:08.201Z,4.54
2023-04-03T08:43:12.101Z,4.63
2023-04-03T08:48:20.655Z,4.75
2023-04-03T08:53:28.171Z,4.88
2023-04-03T08:58:51.541Z,4.85
2023-04-03T09:03:55.980Z,5.09
2023-04-03T09:09:13.445Z,5.26
2023-04-03T09:14:24.556Z,5.41
2023-04-03T09:19:33.292Z,5.53
2023-04-03T09:24:35.179Z,5.64
2023-04-03T09:29:44.305Z,5.78
2023-04-03T09:34:46.642Z,6.05
2023-04-03T09:39:57.058Z,6.12
2023-04-03T09:45:00.209Z,6.35
2023-04-03T09:50:14.281Z,6.52
2023-04-03T09:55:17.503Z,6.65
2023-04-03T10:00:33.354Z,6.76
2023-04-03T10:05:40.767Z,6.93
2023-04-03T10:10:48.865Z,7.00
2023-04-03T10:16:03.231Z,7.16
2023-04-03T10:21:17.433Z,7.09
2023-04-03T10:26:37.483Z,7.20
2023-04-03T10:32:24.470Z,7.37
2023-04-03T10:37:51.118Z,7.51
2023-04-03T10:43:05.022Z,7.69
2023-04-03T10:48:20.511Z,7.74
2023-04-03T10:53:46.342Z,7.73
2023-04-03T10:58:55.660Z,7.84
2023-04-03T11:03:59.660Z,7.88
2023-04-03T11:09:04.734Z,7.95
2023-04-03T11:14:14.367Z,7.98
2023-04-03T11:19:16.035Z,8.09
2023-04-03T11:24:26.362Z,8.20
2023-04-03T11:29:35.946Z,8.04
2023-04-03T11:34:42.710Z,8.16
2023-04-03T11:39:58.442Z,8.39
2023-04-03T11:45:40.224Z,8.57
2023-04-03T11:50:47.227Z,8.60
2023-04-03T11:55:48.893Z,10.05
2023-04-03T12:01:02.659Z,11.55
2023-04-03T12:06:07.905Z,12.58
2023-04-03T12:11:09.693Z,13.26
2023-04-03T12:16:23.784Z,13.94
2023-04-03T12:21:28.314Z,14.51
2023-04-03T12:26:48.751Z,14.91
2023-04-03T12:31:59.921Z,15.63
2023-04-03T12:37:08.371Z,16.52
2023-04-03T12:42:22.402Z,16.61
2023-04-03T12:47:34.258Z,16.97
2023-04-03T12:52:44.504Z,17.18
2023-04-03T12:57:49.061Z,16.91
2023-04-03T13:02:53.359Z,17.39
2023-04-03T13:08:07.139Z,17.65
2023-04-03T13:13:11.949Z,18.27
2023-04-03T13:18:30.926Z,17.69
2023-04-03T13:23:35.097Z,17.96
2023-04-03T13:28:37.162Z,18.68
2023-04-03T13:33:43.166Z,19.07
2023-04-03T13:38:49.852Z,19.48
2023-04-03T13:44:00.451Z,19.87
2023-04-03T13:49:22.778Z,20.27
2023-04-03T13:54:42.092Z,20.71
2023-04-03T13:59:44.454Z,20.75
2023-04-03T14:04:46.307Z,21.37
2023-04-03T14:09:48.425Z,21.67
2023-04-03T14:14:55.051Z,22.26
2023-04-03T14:19:57.887Z,22.08
2023-04-03T14:25:04.558Z,22.18
2023-04-03T14:30:09.790Z,22.12
2023-04-03T14:35:11.649Z,22.32
2023-04-03T14:40:20.891Z,22.93
2023-04-03T14:45:25.052Z,22.04
2023-04-03T14:50:28.068Z,22.35
2023-04-03T14:55:30.483Z,22.77
2023-04-03T15:00:32.956Z,23.36
2023-04-03T15:05:36.237Z,22.64
2023-04-03T15:10:38.223Z,22.35
2023-04-03T15:15:43.001Z,22.69
2023-04-03T15:20:44.890Z,23.03
2023-04-03T15:25:48.941Z,23.29
2023-04-03T15:30:51.412Z,23.64
2023-04-03T15:35:55.810Z,23.93
2023-04-03T15:41:00.188Z,23.57
2023-04-03T15:46:02.537Z,23.55
2023-04-03T15:51:04.548Z,23.23
2023-04-03T15:56:06.348Z,22.48
2023-04-03T16:01:10.923Z,22.37
2023-04-03T16:06:14.275Z,21.33
2023-04-03T16:11:20.833Z,19.95
2023-04-03T16:16:23.334Z,18.19
2023-04-03T16:21:26.377Z,16.14
2023-04-03T16:26:28.900Z,15.04
2023-04-03T16:31:37.300Z,14.36
2023-04-03T16:36:41.420Z,13.83
2023-04-03T16:41:46.255Z,13.84
2023-04-03T16:46:48.499Z,12.88
2023-04-03T16:51:54.625Z,12.65
2023-04-03T16:56:56.450Z,12.24
2023-04-03T17:01:58.322Z,12.06
2023-04-03T17:07:06.943Z,11.50
2023-04-03T17:12:08.812Z,11.23
2023-04-03T17:17:10.945Z,10.75
2023-04-03T17:22:12.807Z,10.46
2023-04-03T17:27:16.930Z,10.08
2023-04-03T17:32:21.378Z,9.65
2023-04-03T17:37:23.196Z,9.54
2023-04-03T17:42:27.031Z,9.36
2023-04-03T17:47:31.172Z,9.13
2023-04-03T17:52:33.152Z,8.86
2023-04-03T17:57:34.896Z,8.83
2023-04-03T18:02:37.058Z,8.56
2023-04-03T18:07:39.442Z,8.25
2023-04-03T18:12:45.066Z,8.05
2023-04-03T18:17:51.415Z,7.87
2023-04-03T18:22:53.300Z,7.70
2023-04-03T18:27:55.242Z,7.67
2023-04-03T18:32:59.641Z,7.56
2023-04-03T18:38:04.787Z,7.41
2023-04-03T18:43:08.826Z,7.25
2023-04-03T18:48:10.960Z,7.13
2023-04-03T18:53:12.740Z,7.07
2023-04-03T18:58:14.672Z,6.99
2023-04-03T19:03:18.928Z,6.89
2023-04-03T19:08:20.832Z,6.73
2023-04-03T19:13:22.702Z,6.63
2023-04-03T19:18:26.217Z,6.62
2023-04-03T19:23:28.262Z,6.60
2023-04-03T19:28:31.043Z,6.50
2023-04-03T19:33:36.008Z,6.48
2023-04-03T19:38:40.132Z,6.46
2023-04-03T19:43:42.498Z,6.37
2023-04-03T19:48:47.346Z,6.29
2023-04-03T19:53:54.035Z,6.25
2023-04-03T19:58:56.797Z,6.14
2023-04-03T20:03:59.144Z,6.80
2023-04-03T20:09:01.679Z,6.40
2023-04-03T20:14:04.004Z,6.06
2023-04-03T20:19:07.950Z,5.83
2023-04-03T20:24:12.066Z,5.73
2023-04-03T20:29:16.465Z,5.63
2023-04-03T20:34:18.336Z,5.53
2023-04-03T20:39:24.686Z,5.41
2023-04-03T20:44:28.930Z,5.37
2023-04-03T20:49:31.261Z,5.28
2023-04-03T20:54:33.793Z,5.15
2023-04-03T20:59:36.944Z,5.10
2023-04-03T21:04:52.933Z,5.00
2023-04-03T21:10:32.498Z,4.95
2023-04-03T21:15:46.517Z,4.84
2023-04-03T21:20:51.320Z,4.75
2023-04-03T21:25:53.001Z,4.67
2023-04-03T21:30:54.755Z,4.58
2023-04-03T21:35:59.967Z,4.52
2023-04-03T21:41:04.493Z,4.43
2023-04-03T21:46:08.792Z,4.39
2023-04-03T21:51:12.790Z,4.28
2023-04-03T21:56:14.595Z,4.24
2023-04-03T22:01:19.523Z,4.13
2023-04-03T22:06:23.894Z,4.06
2023-04-03T22:11:27.166Z,3.98
2023-04-03T22:16:29.032Z,3.89
2023-04-03T22:21:33.829Z,3.79
2023-04-03T22:26:40.716Z,3.70
2023-04-03T22:31:46.771Z,3.61
2023-04-03T22:36:51.139Z,3.53
2023-04-03T22:41:57.325Z,3.49
2023-04-03T22:47:02.335Z,3.42
2023-04-03T22:52:04.183Z,3.30
2023-04-03T22:57:09.596Z,3.21
2023-04-03T23:02:15.683Z,3.17
2023-04-03T23:07:22.744Z,3.12
2023-04-03T23:12:24.425Z,3.06
2023-04-03T23:17:26.174Z,3.00
2023-04-03T23:22:27.884Z,2.90
2023-04-03T23:27:29.579Z,2.86
2023-04-03T23:32:31.364Z,2.80
2023-04-03T23:37:37.802Z,2.68
2023-04-03T23:42:42.951Z,2.56
2023-04-03T23:47:49.435Z,2.46
2023-04-03T23:52:53.323Z,2.34
2023-04-03T23:57:57.422Z,2.23
